Time;durP1;ratioP1;P1;durP2;ratioP2;P2;SDS_P1;SDS_P2;PMS_P1;PMS_P2;Temp;Humidity;BMP_temperature;BMP_pressure;BME280_temperature;BME280_humidity;BME280_pressure;Samples;Min_cycle;Max_cycle;Signal;HPM_P1;HPM_P2
2023/10/25 00:00:36;;;;;;;;;;;9.40;95.40;;;;;;4995048;28;20295;-45
2023/10/25 00:03:02;;;;;;;;;;;9.40;95.40;;;;;;5011836;28;19909;-47
2023/10/25 00:05:35;;;;;;;;;;;9.30;95.50;;;;;;5080401;28;20000;-46
2023/10/25 00:08:00;;;;;;;;;;;9.30;95.40;;;;;;5024740;28;19909;-47
2023/10/25 00:10:26;;;;;;;;;;;9.30;95.40;;;;;;5014102;28;19932;-46
2023/10/25 00:12:53;;;;;;;;;;;9.30;95.30;;;;;;5030984;28;19930;-48
2023/10/25 00:15:18;;;;;;;;;;;9.30;95.50;;;;;;5031336;28;19924;-46
2023/10/25 00:17:45;;;;;;;;;;;9.30;95.40;;;;;;5012504;28;19905;-46
2023/10/25 00:20:12;;;;;;;;;;;9.20;95.60;;;;;;5011784;28;20280;-46
2023/10/25 00:22:39;;;;;;;;;;;9.20;95.60;;;;;;5011468;28;19937;-47
2023/10/25 00:25:06;;;;;;;;;;;9.30;95.60;;;;;;5011760;28;19913;-46
2023/10/25 00:27:31;;;;;;;;;;;9.20;95.60;;;;;;5017154;28;19909;-47
2023/10/25 00:30:01;;;;;;;;;;;9.30;95.70;;;;;;5031284;28;20000;-48
2023/10/25 00:32:26;;;;;;;;;;;9.30;95.60;;;;;;5018095;28;20004;-46
2023/10/25 00:34:52;;;;;;;;;;;9.30;95.60;;;;;;4994053;28;20042;-47
2023/10/25 00:37:19;;;;;;;;;;;9.30;95.70;;;;;;5011458;28;19909;-47
2023/10/25 00:39:44;;;;;;;;;;;9.20;95.60;;;;;;5011375;28;19905;-48
2023/10/25 00:42:11;;;;;;;;;;;9.20;95.60;;;;;;5012245;28;19965;-46
2023/10/25 00:44:38;;;;;;;;;;;9.20;95.60;;;;;;5030285;28;20330;-48
2023/10/25 00:47:05;;;;;;;;;;;9.20;95.60;;;;;;5030003;28;19974;-47
2023/10/25 00:49:32;;;;;;;;;;;9.20;95.60;;;;;;5028653;28;19909;-46
2023/10/25 00:51:59;;;;;;;;;;;9.20;95.70;;;;;;5030858;28;19909;-46
2023/10/25 00:54:25;;;;;;;;;;;9.20;95.70;;;;;;5030807;28;20297;-48
2023/10/25 00:56:53;;;;;;;;;;;9.20;95.70;;;;;;5011358;28;19909;-47
2023/10/25 00:59:21;;;;;;;;;;;9.20;95.70;;;;;;5027373;28;19966;-48
2023/10/25 01:01:49;;;;;;;;;;;9.20;95.70;;;;;;5013493;28;19917;-46
2023/10/25 01:04:18;;;;;;;;;;;9.20;95.70;;;;;;5012858;28;19913;-47
2023/10/25 01:06:44;;;;;;;;;;;9.20;95.70;;;;;;5019733;28;19913;-46
2023/10/25 01:09:09;;;;;;;;;;;9.20;95.60;;;;;;4993783;28;19905;-47
2023/10/25 01:11:35;;;;;;;;;;;9.20;95.70;;;;;;5010377;28;19957;-47
2023/10/25 01:14:04;;;;;;;;;;;9.20;95.60;;;;;;5018463;28;19909;-49
2023/10/25 01:16:31;;;;;;;;;;;9.20;95.70;;;;;;5029947;28;19913;-48
2023/10/25 01:18:57;;;;;;;;;;;9.20;95.70;;;;;;5020809;28;20368;-46
2023/10/25 01:21:25;;;;;;;;;;;9.20;95.60;;;;;;5010815;28;19909;-46
2023/10/25 01:23:56;;;;;;;;;;;9.20;95.60;;;;;;5010254;28;19909;-46
2023/10/25 01:26:21;;;;;;;;;;;9.10;95.60;;;;;;4994201;28;19913;-48
2023/10/25 01:28:47;;;;;;;;;;;9.10;95.60;;;;;;5018891;28;20004;-46
2023/10/25 01:31:14;;;;;;;;;;;9.20;95.60;;;;;;5014541;28;19920;-46
2023/10/25 01:33:42;;;;;;;;;;;9.20;95.50;;;;;;5010136;28;19905;-46
2023/10/25 01:36:08;;;;;;;;;;;9.20;95.50;;;;;;5010247;28;19905;-46
2023/10/25 01:38:34;;;;;;;;;;;9.20;95.40;;;;;;5010541;28;19950;-47
2023/10/25 01:41:01;;;;;;;;;;;9.10;95.40;;;;;;5008810;28;19977;-49
2023/10/25 01:43:28;;;;;;;;;;;9.20;95.40;;;;;;5014011;28;20341;-46
2023/10/25 01:45:56;;;;;;;;;;;9.10;95.40;;;;;;5030221;28;19933;-47
2023/10/25 01:48:23;;;;;;;;;;;9.10;95.40;;;;;;5030180;28;19913;-46
2023/10/25 01:50:51;;;;;;;;;;;9.20;95.50;;;;;;5010981;28;19917;-46
2023/10/25 01:53:16;;;;;;;;;;;9.10;95.40;;;;;;5010855;28;19905;-49
2023/10/25 01:55:42;;;;;;;;;;;9.10;95.30;;;;;;5075283;28;20275;-46
2023/10/25 01:58:09;;;;;;;;;;;9.10;95.30;;;;;;5009571;28;19909;-50
2023/10/25 02:00:34;;;;;;;;;;;9.00;95.30;;;;;;5011647;28;20008;-46
2023/10/25 02:03:00;;;;;;;;;;;9.00;95.30;;;;;;5009508;28;20456;-46
2023/10/25 02:05:25;;;;;;;;;;;9.00;95.30;;;;;;5009493;28;19921;-46
2023/10/25 02:07:52;;;;;;;;;;;9.00;95.30;;;;;;5009654;28;20330;-48
2023/10/25 02:10:20;;;;;;;;;;;9.00;95.30;;;;;;5020590;28;19943;-47
2023/10/25 02:12:47;;;;;;;;;;;9.00;95.30;;;;;;5010059;28;19955;-47
2023/10/25 02:15:13;;;;;;;;;;;9.00;95.30;;;;;;5020944;28;19918;-47
2023/10/25 02:17:39;;;;;;;;;;;9.00;95.30;;;;;;5010115;28;19905;-47
2023/10/25 02:20:10;;;;;;;;;;;9.00;95.30;;;;;;5010122;28;20314;-49
2023/10/25 02:22:37;;;;;;;;;;;9.00;95.20;;;;;;5024693;28;19913;-47
2023/10/25 02:25:04;;;;;;;;;;;9.00;95.20;;;;;;5009944;28;19913;-47
2023/10/25 02:27:31;;;;;;;;;;;9.00;95.20;;;;;;5009876;28;20001;-47
2023/10/25 02:29:59;;;;;;;;;;;9.00;95.20;;;;;;5013660;28;19910;-46
2023/10/25 02:32:24;;;;;;;;;;;8.90;95.20;;;;;;5009956;28;20338;-46
2023/10/25 02:34:50;;;;;;;;;;;9.00;95.20;;;;;;5009859;28;19915;-47
2023/10/25 02:37:17;;;;;;;;;;;9.00;95.10;;;;;;5012565;28;19909;-47
2023/10/25 02:39:43;;;;;;;;;;;9.00;95.10;;;;;;5013306;28;19968;-47
2023/10/25 02:42:12;;;;;;;;;;;8.90;95.10;;;;;;5013089;28;19982;-48
2023/10/25 02:44:39;;;;;;;;;;;8.90;95.10;;;;;;5028723;28;19920;-47
2023/10/25 02:47:06;;;;;;;;;;;8.90;95.10;;;;;;5013023;28;19910;-49
2023/10/25 02:49:37;;;;;;;;;;;8.90;95.10;;;;;;5013406;28;20212;-46
2023/10/25 02:52:04;;;;;;;;;;;8.90;95.10;;;;;;5015981;28;20419;-46
2023/10/25 02:54:29;;;;;;;;;;;8.90;95.00;;;;;;5014625;28;20368;-50
2023/10/25 02:57:00;;;;;;;;;;;8.90;95.00;;;;;;5013392;28;19905;-47
2023/10/25 02:59:26;;;;;;;;;;;8.90;95.00;;;;;;5024519;28;20249;-47
2023/10/25 03:01:53;;;;;;;;;;;8.90;95.00;;;;;;5012858;28;20012;-46
2023/10/25 03:04:20;;;;;;;;;;;8.90;94.90;;;;;;5012524;28;19909;-48
2023/10/25 03:06:47;;;;;;;;;;;8.80;95.00;;;;;;5012885;28;20000;-50
2023/10/25 03:09:18;;;;;;;;;;;8.80;94.90;;;;;;5012922;28;20315;-48
2023/10/25 03:11:44;;;;;;;;;;;8.80;95.00;;;;;;5012484;28;20357;-48
2023/10/25 03:14:10;;;;;;;;;;;8.80;94.90;;;;;;5026206;28;20004;-49
2023/10/25 03:16:37;;;;;;;;;;;8.80;94.90;;;;;;5025693;28;19999;-52
2023/10/25 03:19:02;;;;;;;;;;;8.80;94.90;;;;;;5012849;28;20410;-47
2023/10/25 03:21:29;;;;;;;;;;;8.70;94.90;;;;;;5019713;28;20011;-49
2023/10/25 03:23:55;;;;;;;;;;;8.70;94.90;;;;;;5032273;28;19972;-48
2023/10/25 03:26:20;;;;;;;;;;;8.70;94.90;;;;;;5024373;28;19915;-48
2023/10/25 03:28:47;;;;;;;;;;;8.70;94.80;;;;;;5020737;28;19909;-48
2023/10/25 03:31:14;;;;;;;;;;;8.70;94.90;;;;;;5032571;28;19915;-46
2023/10/25 03:33:40;;;;;;;;;;;8.60;94.80;;;;;;5025757;28;19910;-48
2023/10/25 03:36:09;;;;;;;;;;;8.70;94.80;;;;;;5012461;28;19920;-51
2023/10/25 03:38:37;;;;;;;;;;;8.70;94.90;;;;;;5012118;28;19914;-48
2023/10/25 03:41:05;;;;;;;;;;;8.60;94.80;;;;;;5074006;28;19913;-47
2023/10/25 03:43:32;;;;;;;;;;;8.60;94.80;;;;;;4999402;28;20015;-49
2023/10/25 03:46:08;;;;;;;;;;;8.60;94.80;;;;;;5032096;28;20261;-48
2023/10/25 03:48:36;;;;;;;;;;;8.60;94.80;;;;;;5010170;28;19910;-49
2023/10/25 03:51:03;;;;;;;;;;;8.60;94.80;;;;;;5012115;28;19910;-48
2023/10/25 03:53:32;;;;;;;;;;;8.50;94.80;;;;;;5012626;28;20307;-52
2023/10/25 03:56:00;;;;;;;;;;;8.50;94.80;;;;;;5031678;28;19917;-48
2023/10/25 03:58:27;;;;;;;;;;;8.50;94.70;;;;;;5025644;28;19909;-48
2023/10/25 04:00:58;;;;;;;;;;;8.40;94.70;;;;;;5012087;28;19992;-47
2023/10/25 04:03:25;;;;;;;;;;;8.50;94.80;;;;;;5011659;28;20001;-54
2023/10/25 04:05:51;;;;;;;;;;;8.50;94.80;;;;;;5012004;28;19909;-47
2023/10/25 04:08:17;;;;;;;;;;;8.40;94.80;;;;;;5011731;28;19910;-51
2023/10/25 04:10:48;;;;;;;;;;;8.40;94.80;;;;;;5039799;28;19927;-51
2023/10/25 04:13:15;;;;;;;;;;;8.40;94.80;;;;;;5075455;28;20034;-47
2023/10/25 04:15:41;;;;;;;;;;;8.40;94.90;;;;;;5094602;28;20333;-53
2023/10/25 04:18:10;;;;;;;;;;;8.40;95.00;;;;;;5094369;28;20022;-52
2023/10/25 04:20:37;;;;;;;;;;;8.40;95.00;;;;;;5085279;28;20310;-51
2023/10/25 04:23:03;;;;;;;;;;;8.40;95.00;;;;;;5073036;28;19951;-50
2023/10/25 04:25:29;;;;;;;;;;;8.40;95.00;;;;;;5080139;28;20358;-50
2023/10/25 04:27:58;;;;;;;;;;;8.40;95.00;;;;;;5094574;28;19934;-50
2023/10/25 04:30:26;;;;;;;;;;;8.40;95.00;;;;;;5092962;28;19912;-50
2023/10/25 04:32:52;;;;;;;;;;;8.40;95.10;;;;;;5094666;28;19904;-48
2023/10/25 04:35:18;;;;;;;;;;;8.40;95.10;;;;;;5094544;28;19915;-53
2023/10/25 04:37:44;;;;;;;;;;;8.40;95.10;;;;;;5077549;28;19912;-50
2023/10/25 04:40:11;;;;;;;;;;;8.30;95.10;;;;;;5074233;28;20344;-47
2023/10/25 04:42:38;;;;;;;;;;;8.40;95.10;;;;;;5073925;28;20003;-54
2023/10/25 04:45:04;;;;;;;;;;;8.40;95.20;;;;;;5086371;28;19999;-48
2023/10/25 04:47:33;;;;;;;;;;;8.40;95.20;;;;;;5073731;28;19962;-52
2023/10/25 04:50:03;;;;;;;;;;;8.40;95.20;;;;;;5074095;28;19943;-47
2023/10/25 04:52:30;;;;;;;;;;;8.40;95.10;;;;;;5073751;28;19999;-50
2023/10/25 04:54:57;;;;;;;;;;;8.40;95.20;;;;;;5073511;28;19908;-53
2023/10/25 04:57:23;;;;;;;;;;;8.40;95.10;;;;;;5073753;28;19962;-47
2023/10/25 04:59:50;;;;;;;;;;;8.40;95.10;;;;;;5080483;28;20330;-49
2023/10/25 05:02:16;;;;;;;;;;;8.40;95.20;;;;;;5073636;28;19909;-48
2023/10/25 05:04:43;;;;;;;;;;;8.40;95.10;;;;;;5073568;28;19919;-47
2023/10/25 05:07:11;;;;;;;;;;;8.40;95.20;;;;;;5073385;28;20334;-50
2023/10/25 05:09:39;;;;;;;;;;;8.40;95.10;;;;;;5073618;28;19998;-49
2023/10/25 05:12:08;;;;;;;;;;;8.40;95.10;;;;;;5032903;28;19936;-50
2023/10/25 05:14:35;;;;;;;;;;;8.40;95.10;;;;;;5030134;28;20012;-51
2023/10/25 05:17:00;;;;;;;;;;;8.40;95.10;;;;;;5024895;28;19910;-49
2023/10/25 05:19:28;;;;;;;;;;;8.40;95.10;;;;;;5010657;28;20300;-53
2023/10/25 05:21:55;;;;;;;;;;;8.40;95.10;;;;;;5011086;28;19909;-51
2023/10/25 05:24:21;;;;;;;;;;;8.40;95.10;;;;;;5010989;28;20250;-50
2023/10/25 05:26:48;;;;;;;;;;;8.40;95.00;;;;;;5013479;28;19920;-47
2023/10/25 05:29:15;;;;;;;;;;;8.40;95.00;;;;;;5046077;28;19919;-54
2023/10/25 05:31:45;;;;;;;;;;;8.30;95.00;;;;;;5030705;28;19913;-53
2023/10/25 05:34:11;;;;;;;;;;;8.20;94.90;;;;;;5009093;28;19916;-49
2023/10/25 05:36:38;;;;;;;;;;;8.20;94.90;;;;;;5004072;28;19910;-52
2023/10/25 05:39:04;;;;;;;;;;;8.20;95.00;;;;;;5093203;28;20364;-52
2023/10/25 05:41:35;;;;;;;;;;;8.20;95.00;;;;;;5092961;28;20375;-53
2023/10/25 05:44:16;;;;;;;;;;;8.20;95.10;;;;;;5028207;28;19964;-53
2023/10/25 05:46:42;;;;;;;;;;;8.20;95.10;;;;;;5013428;28;20279;-47
2023/10/25 05:49:08;;;;;;;;;;;8.20;95.20;;;;;;5093206;28;20008;-49
2023/10/25 05:51:35;;;;;;;;;;;8.20;95.10;;;;;;5093116;28;20045;-54
2023/10/25 05:54:02;;;;;;;;;;;8.20;95.10;;;;;;5092904;28;20003;-51
2023/10/25 05:56:31;;;;;;;;;;;8.20;95.20;;;;;;5093007;28;20031;-54
2023/10/25 05:58:57;;;;;;;;;;;8.20;95.10;;;;;;5112405;28;20321;-49
2023/10/25 06:01:31;;;;;;;;;;;8.20;95.20;;;;;;5098929;28;19920;-49
2023/10/25 06:03:58;;;;;;;;;;;8.20;95.10;;;;;;5008241;28;19916;-51
2023/10/25 06:06:25;;;;;;;;;;;8.20;95.20;;;;;;5006227;28;20253;-49
2023/10/25 06:08:51;;;;;;;;;;;8.20;95.10;;;;;;5091756;28;19991;-47
2023/10/25 06:11:18;;;;;;;;;;;8.20;95.10;;;;;;5096125;28;20085;-52
2023/10/25 06:13:45;;;;;;;;;;;8.20;95.10;;;;;;5116749;28;19968;-52
2023/10/25 06:16:15;;;;;;;;;;;8.20;95.20;;;;;;5129007;27;20486;-47
2023/10/25 06:18:42;;;;;;;;;;;8.10;95.20;;;;;;5095935;28;19927;-52
2023/10/25 06:21:09;;;;;;;;;;;8.20;95.20;;;;;;5096514;28;20340;-49
2023/10/25 06:23:37;;;;;;;;;;;8.10;95.10;;;;;;5096740;28;20393;-48
2023/10/25 06:26:04;;;;;;;;;;;8.10;95.20;;;;;;5096846;28;19911;-52
2023/10/25 06:28:30;;;;;;;;;;;8.20;95.20;;;;;;5116752;28;19915;-50
2023/10/25 06:30:56;;;;;;;;;;;8.20;95.20;;;;;;5117305;28;20507;-52
2023/10/25 06:33:24;;;;;;;;;;;8.20;95.20;;;;;;5116521;28;19907;-47
2023/10/25 06:35:50;;;;;;;;;;;8.20;95.20;;;;;;5078370;28;19954;-47
2023/10/25 06:38:16;;;;;;;;;;;8.20;95.10;;;;;;5096285;28;19945;-48
2023/10/25 06:40:45;;;;;;;;;;;8.20;95.20;;;;;;5112461;28;20332;-53
2023/10/25 06:43:12;;;;;;;;;;;8.20;95.10;;;;;;5113098;28;20355;-47
2023/10/25 06:45:37;;;;;;;;;;;8.20;95.10;;;;;;5096995;28;19923;-47
2023/10/25 06:48:03;;;;;;;;;;;8.20;95.20;;;;;;5096431;28;19904;-49
2023/10/25 06:50:29;;;;;;;;;;;8.20;95.10;;;;;;5096522;28;19911;-47
2023/10/25 06:52:56;;;;;;;;;;;8.20;95.10;;;;;;5096220;28;19922;-47
2023/10/25 06:55:23;;;;;;;;;;;8.20;95.00;;;;;;5096397;28;19915;-47
2023/10/25 06:57:49;;;;;;;;;;;8.20;95.10;;;;;;5107781;28;19916;-47
2023/10/25 07:00:17;;;;;;;;;;;8.20;95.00;;;;;;5106524;28;19918;-49
2023/10/25 07:02:51;;;;;;;;;;;8.20;95.10;;;;;;5096061;28;19908;-47
2023/10/25 07:05:23;;;;;;;;;;;8.20;95.10;;;;;;5096006;28;20006;-48
2023/10/25 07:07:52;;;;;;;;;;;8.20;95.10;;;;;;5095950;28;19965;-47
2023/10/25 07:10:18;;;;;;;;;;;8.30;95.20;;;;;;5092803;28;19961;-49
2023/10/25 07:12:44;;;;;;;;;;;8.40;95.20;;;;;;5013661;28;19910;-49
2023/10/25 07:15:11;;;;;;;;;;;8.40;95.20;;;;;;4995863;28;19917;-49
2023/10/25 07:17:38;;;;;;;;;;;8.40;95.10;;;;;;5069740;28;19916;-47
2023/10/25 07:20:09;;;;;;;;;;;8.40;95.10;;;;;;5012295;28;20349;-47
2023/10/25 07:22:36;;;;;;;;;;;8.40;95.10;;;;;;4994694;28;19981;-47
2023/10/25 07:25:07;;;;;;;;;;;8.40;95.10;;;;;;5012648;28;20318;-47
2023/10/25 07:27:37;;;;;;;;;;;8.40;95.10;;;;;;5021236;28;19955;-47
2023/10/25 07:30:04;;;;;;;;;;;8.40;95.20;;;;;;5021633;28;19913;-47
2023/10/25 07:32:33;;;;;;;;;;;8.40;95.10;;;;;;5032411;28;20537;-48
2023/10/25 07:34:59;;;;;;;;;;;8.50;95.20;;;;;;5029745;28;20742;-48
2023/10/25 07:37:26;;;;;;;;;;;8.50;95.20;;;;;;5012563;28;19999;-47
2023/10/25 07:39:51;;;;;;;;;;;8.60;95.20;;;;;;5012342;28;19909;-47
2023/10/25 07:42:24;;;;;;;;;;;8.60;95.20;;;;;;4999494;28;19913;-47
2023/10/25 07:44:50;;;;;;;;;;;8.70;95.20;;;;;;5015741;28;19970;-47
2023/10/25 07:47:19;;;;;;;;;;;8.80;95.20;;;;;;5012339;28;19909;-47
2023/10/25 07:49:46;;;;;;;;;;;8.90;95.20;;;;;;5012184;28;20042;-47
2023/10/25 07:52:16;;;;;;;;;;;9.00;95.00;;;;;;5012124;28;20238;-49
2023/10/25 07:54:43;;;;;;;;;;;9.00;94.90;;;;;;5027658;28;20617;-48
2023/10/25 07:57:08;;;;;;;;;;;9.20;94.80;;;;;;5005545;28;20070;-47
2023/10/25 07:59:36;;;;;;;;;;;9.30;94.50;;;;;;5012174;28;20433;-46
2023/10/25 08:02:07;;;;;;;;;;;9.40;94.30;;;;;;5011754;28;19920;-50
2023/10/25 08:04:32;;;;;;;;;;;9.50;94.00;;;;;;5012061;28;19917;-46
2023/10/25 08:07:00;;;;;;;;;;;9.50;93.90;;;;;;4994339;28;19923;-46
2023/10/25 08:09:30;;;;;;;;;;;9.60;93.50;;;;;;5012117;28;19905;-46
2023/10/25 08:12:00;;;;;;;;;;;9.70;93.50;;;;;;5017948;28;19921;-46
2023/10/25 08:14:27;;;;;;;;;;;9.80;93.10;;;;;;5031618;28;20322;-46
2023/10/25 08:16:52;;;;;;;;;;;9.90;93.20;;;;;;5021660;28;20257;-45
2023/10/25 08:19:19;;;;;;;;;;;10.00;92.80;;;;;;5011718;28;19913;-46
2023/10/25 08:21:45;;;;;;;;;;;10.10;92.60;;;;;;5011608;28;19909;-45
2023/10/25 08:24:12;;;;;;;;;;;10.30;92.60;;;;;;5026913;28;20314;-46
2023/10/25 08:26:40;;;;;;;;;;;10.40;92.20;;;;;;5032741;28;19913;-45
2023/10/25 08:29:07;;;;;;;;;;;10.50;92.00;;;;;;5031358;28;19913;-47
2023/10/25 08:31:34;;;;;;;;;;;10.50;91.20;;;;;;5031262;28;19938;-46
2023/10/25 08:34:02;;;;;;;;;;;10.60;91.30;;;;;;5026721;28;19915;-48
2023/10/25 08:36:30;;;;;;;;;;;10.70;91.00;;;;;;4994378;28;20009;-46
2023/10/25 08:38:58;;;;;;;;;;;10.70;90.90;;;;;;5011515;28;20007;-48
2023/10/25 08:41:27;;;;;;;;;;;10.90;91.10;;;;;;5009837;28;19943;-47
2023/10/25 08:43:54;;;;;;;;;;;11.00;90.80;;;;;;5031030;28;20238;-47
2023/10/25 08:46:22;;;;;;;;;;;11.10;90.80;;;;;;5011572;28;19916;-49
2023/10/25 08:48:52;;;;;;;;;;;11.20;90.40;;;;;;5011287;28;19916;-48
2023/10/25 08:51:19;;;;;;;;;;;11.30;89.80;;;;;;5011133;28;19967;-48
2023/10/25 08:53:45;;;;;;;;;;;11.30;89.40;;;;;;5011220;28;20238;-49
2023/10/25 08:56:12;;;;;;;;;;;11.40;89.60;;;;;;5026626;28;19973;-49
2023/10/25 08:58:38;;;;;;;;;;;11.40;89.10;;;;;;5031073;28;20509;-51
2023/10/25 09:01:04;;;;;;;;;;;11.60;89.20;;;;;;5030416;28;19905;-52
2023/10/25 09:03:33;;;;;;;;;;;11.70;88.40;;;;;;5012857;28;19917;-49
2023/10/25 09:05:58;;;;;;;;;;;11.70;88.70;;;;;;5025031;28;19913;-50
2023/10/25 09:08:26;;;;;;;;;;;11.80;88.70;;;;;;5042336;28;20432;-52
2023/10/25 09:11:11;;;;;;;;;;;11.90;88.50;;;;;;5030543;28;19969;-52
2023/10/25 09:13:41;;;;;;;;;;;12.00;88.20;;;;;;5030793;28;19909;-54
2023/10/25 09:16:08;;;;;;;;;;;12.20;88.10;;;;;;5026677;28;19913;-54
2023/10/25 09:18:36;;;;;;;;;;;12.10;87.50;;;;;;5010041;28;19909;-50
2023/10/25 09:21:06;;;;;;;;;;;12.00;87.50;;;;;;5010220;28;20334;-55
2023/10/25 09:23:34;;;;;;;;;;;12.00;87.40;;;;;;4996891;28;19999;-53
2023/10/25 09:26:13;;;;;;;;;;;11.90;87.50;;;;;;5011122;28;19962;-57
2023/10/25 09:28:39;;;;;;;;;;;11.90;87.80;;;;;;5026439;28;19909;-56
2023/10/25 09:31:19;;;;;;;;;;;11.90;88.10;;;;;;5010566;28;20386;-57
2023/10/25 09:33:46;;;;;;;;;;;11.90;88.10;;;;;;5009731;28;19914;-57
2023/10/25 09:36:13;;;;;;;;;;;12.00;88.40;;;;;;4993004;28;19913;-58
2023/10/25 09:38:39;;;;;;;;;;;12.20;88.40;;;;;;5016271;28;19940;-58
2023/10/25 09:41:07;;;;;;;;;;;12.20;87.80;;;;;;5029843;28;19993;-56
2023/10/25 09:43:32;;;;;;;;;;;12.30;87.90;;;;;;5011762;28;20054;-57
2023/10/25 09:46:02;;;;;;;;;;;12.40;87.80;;;;;;5009963;28;20000;-58
2023/10/25 09:48:30;;;;;;;;;;;12.30;87.10;;;;;;5010927;28;19913;-58
2023/10/25 09:51:17;;;;;;;;;;;12.20;87.10;;;;;;5010232;28;20057;-55
2023/10/25 09:53:51;;;;;;;;;;;12.20;87.50;;;;;;5016026;28;19942;-58
2023/10/25 09:56:18;;;;;;;;;;;12.20;87.80;;;;;;5012808;28;19906;-55
2023/10/25 09:58:50;;;;;;;;;;;12.30;87.90;;;;;;5013651;28;19913;-55
2023/10/25 10:01:17;;;;;;;;;;;12.30;87.80;;;;;;5016100;28;19913;-58
2023/10/25 10:04:19;;;;;;;;;;;12.40;88.10;;;;;;5019014;28;19944;-56
2023/10/25 10:07:03;;;;;;;;;;;12.50;88.40;;;;;;4969330;28;20345;-55
2023/10/25 10:09:30;;;;;;;;;;;12.60;87.60;;;;;;4968731;28;19917;-56
2023/10/25 10:12:00;;;;;;;;;;;12.70;87.40;;;;;;5037767;28;20381;-56
2023/10/25 10:14:30;;;;;;;;;;;12.80;87.20;;;;;;5047565;28;19917;-56
2023/10/25 10:17:03;;;;;;;;;;;12.70;86.20;;;;;;5030958;28;20348;-57
2023/10/25 10:19:32;;;;;;;;;;;12.60;86.90;;;;;;5065598;28;19920;-54
2023/10/25 10:22:08;;;;;;;;;;;12.60;87.00;;;;;;5041633;28;19987;-55
2023/10/25 10:24:38;;;;;;;;;;;12.60;87.00;;;;;;5056194;28;19991;-52
2023/10/25 10:27:08;;;;;;;;;;;12.40;86.60;;;;;;5050161;28;20306;-54
2023/10/25 10:29:36;;;;;;;;;;;12.40;86.60;;;;;;5054812;28;20334;-54
2023/10/25 10:32:02;;;;;;;;;;;12.20;86.70;;;;;;5030888;28;20290;-54
2023/10/25 10:34:59;;;;;;;;;;;12.10;86.90;;;;;;5030693;28;19919;-55
2023/10/25 10:37:27;;;;;;;;;;;12.10;87.30;;;;;;5022376;28;19988;-53
2023/10/25 10:40:00;;;;;;;;;;;12.00;87.80;;;;;;5057981;28;19924;-51
2023/10/25 10:42:36;;;;;;;;;;;12.00;88.00;;;;;;5086336;28;20313;-55
2023/10/25 10:45:08;;;;;;;;;;;11.90;88.20;;;;;;5092851;28;20385;-55
2023/10/25 10:47:41;;;;;;;;;;;11.90;88.60;;;;;;5074462;28;20234;-55
2023/10/25 10:50:26;;;;;;;;;;;11.90;88.60;;;;;;5072595;28;20333;-53
2023/10/25 10:52:52;;;;;;;;;;;11.90;88.60;;;;;;5072561;28;19951;-56
2023/10/25 10:55:20;;;;;;;;;;;11.90;88.70;;;;;;5074754;28;19986;-49
2023/10/25 10:57:47;;;;;;;;;;;11.90;88.90;;;;;;5082595;28;20314;-56
2023/10/25 11:00:16;;;;;;;;;;;11.90;88.90;;;;;;5091917;28;19958;-53
2023/10/25 11:02:46;;;;;;;;;;;11.90;88.60;;;;;;5076219;28;19974;-54
2023/10/25 11:05:19;;;;;;;;;;;11.90;88.90;;;;;;5075516;28;19911;-52
2023/10/25 11:07:47;;;;;;;;;;;12.00;89.10;;;;;;5075777;28;19948;-56
2023/10/25 11:10:13;;;;;;;;;;;12.10;88.70;;;;;;5085866;28;19916;-53
2023/10/25 11:12:41;;;;;;;;;;;12.10;89.00;;;;;;5034049;28;19961;-55
2023/10/25 11:15:09;;;;;;;;;;;12.20;88.70;;;;;;5016401;28;20386;-55
2023/10/25 11:17:35;;;;;;;;;;;12.30;88.70;;;;;;5011869;28;19905;-54
2023/10/25 11:20:02;;;;;;;;;;;12.30;88.30;;;;;;5028092;28;19916;-55
2023/10/25 11:22:33;;;;;;;;;;;12.30;88.40;;;;;;5012584;28;20743;-55
2023/10/25 11:25:02;;;;;;;;;;;12.40;88.30;;;;;;5012989;28;20327;-51
2023/10/25 11:27:35;;;;;;;;;;;12.40;88.20;;;;;;4995785;28;19909;-50
2023/10/25 11:30:01;;;;;;;;;;;12.50;87.70;;;;;;5011972;28;19966;-53
2023/10/25 11:32:33;;;;;;;;;;;12.50;87.30;;;;;;5012220;28;19921;-52
2023/10/25 11:34:59;;;;;;;;;;;12.60;87.30;;;;;;5024092;28;19925;-49
2023/10/25 11:37:27;;;;;;;;;;;12.60;87.10;;;;;;5027203;28;19913;-53
2023/10/25 11:40:01;;;;;;;;;;;12.70;86.90;;;;;;5017437;28;20403;-54
2023/10/25 11:42:31;;;;;;;;;;;12.80;87.10;;;;;;5031986;28;20349;-55
2023/10/25 11:44:58;;;;;;;;;;;12.80;86.50;;;;;;5031239;28;20375;-52
2023/10/25 11:47:26;;;;;;;;;;;12.80;87.00;;;;;;5016084;28;20337;-53
2023/10/25 11:49:55;;;;;;;;;;;12.90;87.00;;;;;;5011177;28;19953;-52
2023/10/25 11:52:22;;;;;;;;;;;12.90;86.30;;;;;;5011275;28;19909;-51
2023/10/25 11:54:54;;;;;;;;;;;12.90;86.00;;;;;;5014516;28;19921;-54
2023/10/25 11:57:32;;;;;;;;;;;12.90;86.10;;;;;;5012321;28;20386;-51
2023/10/25 11:59:58;;;;;;;;;;;12.90;86.30;;;;;;5011176;28;19981;-53
2023/10/25 12:02:25;;;;;;;;;;;12.90;86.70;;;;;;5011991;28;19917;-52
2023/10/25 12:04:53;;;;;;;;;;;12.90;86.80;;;;;;4997798;28;19917;-53
2023/10/25 12:07:25;;;;;;;;;;;12.90;86.50;;;;;;5012814;28;19929;-55
2023/10/25 12:09:52;;;;;;;;;;;12.90;86.30;;;;;;5016498;28;19916;-55
2023/10/25 12:12:19;;;;;;;;;;;12.90;86.60;;;;;;5030253;28;19924;-56
2023/10/25 12:14:46;;;;;;;;;;;12.80;86.70;;;;;;5031857;28;19905;-53
2023/10/25 12:17:11;;;;;;;;;;;12.70;86.50;;;;;;5030372;28;19909;-52
2023/10/25 12:19:39;;;;;;;;;;;12.70;86.70;;;;;;5031571;28;19909;-55
2023/10/25 12:22:08;;;;;;;;;;;12.70;87.10;;;;;;5031173;28;19930;-52
2023/10/25 12:24:34;;;;;;;;;;;12.70;87.00;;;;;;5029186;28;20333;-52
2023/10/25 12:27:01;;;;;;;;;;;12.70;87.00;;;;;;5030284;28;20296;-56
2023/10/25 12:29:30;;;;;;;;;;;12.80;87.20;;;;;;5029747;28;19952;-54
2023/10/25 12:31:55;;;;;;;;;;;12.90;87.20;;;;;;5031111;28;20336;-54
2023/10/25 12:34:22;;;;;;;;;;;13.00;87.00;;;;;;5031209;28;19904;-53
2023/10/25 12:36:50;;;;;;;;;;;13.10;86.50;;;;;;5014474;28;19992;-55
2023/10/25 12:39:20;;;;;;;;;;;13.20;86.40;;;;;;5010621;28;19910;-50
2023/10/25 12:41:48;;;;;;;;;;;13.40;85.70;;;;;;5014288;28;19917;-55
2023/10/25 12:44:13;;;;;;;;;;;13.40;85.40;;;;;;5030950;28;19909;-57
2023/10/25 12:46:45;;;;;;;;;;;13.50;85.40;;;;;;5031378;28;19909;-50
2023/10/25 12:49:18;;;;;;;;;;;13.40;85.10;;;;;;5022604;28;19913;-54
2023/10/25 12:51:44;;;;;;;;;;;13.40;85.20;;;;;;4994256;28;19924;-55
2023/10/25 12:54:10;;;;;;;;;;;13.40;84.80;;;;;;5011430;28;19905;-56
2023/10/25 12:56:37;;;;;;;;;;;13.40;85.50;;;;;;5028007;28;19909;-53
2023/10/25 12:59:04;;;;;;;;;;;13.40;85.90;;;;;;5014945;28;20371;-56
2023/10/25 13:01:30;;;;;;;;;;;13.30;85.60;;;;;;5018801;28;20018;-56
2023/10/25 13:03:56;;;;;;;;;;;13.20;85.80;;;;;;5037301;28;20400;-55
2023/10/25 13:06:22;;;;;;;;;;;13.20;86.20;;;;;;5011243;28;19909;-53
2023/10/25 13:08:49;;;;;;;;;;;13.20;86.00;;;;;;5010809;28;19906;-56
2023/10/25 13:11:15;;;;;;;;;;;13.20;86.50;;;;;;5022365;28;19921;-55
2023/10/25 13:13:44;;;;;;;;;;;13.10;86.50;;;;;;5021666;28;19973;-53
2023/10/25 13:16:12;;;;;;;;;;;13.10;86.70;;;;;;5010666;28;19905;-54
2023/10/25 13:18:39;;;;;;;;;;;13.20;86.80;;;;;;5018741;28;20038;-49
2023/10/25 13:21:06;;;;;;;;;;;13.20;86.90;;;;;;5019900;28;19922;-52
2023/10/25 13:23:31;;;;;;;;;;;13.10;86.70;;;;;;5009068;28;19909;-52
2023/10/25 13:25:59;;;;;;;;;;;13.10;86.90;;;;;;5010642;28;19963;-50
2023/10/25 13:28:25;;;;;;;;;;;13.20;87.00;;;;;;5010446;28;19996;-53
2023/10/25 13:30:52;;;;;;;;;;;13.10;86.90;;;;;;5010490;28;20003;-53
2023/10/25 13:33:19;;;;;;;;;;;13.20;87.30;;;;;;5010742;28;19910;-54
2023/10/25 13:35:48;;;;;;;;;;;13.20;87.20;;;;;;5010143;28;19910;-54
2023/10/25 13:38:15;;;;;;;;;;;13.30;87.50;;;;;;5013611;28;19913;-54
2023/10/25 13:40:42;;;;;;;;;;;13.30;87.60;;;;;;5020700;28;20318;-56
2023/10/25 13:43:08;;;;;;;;;;;13.30;87.90;;;;;;5029720;28;20462;-52
2023/10/25 13:45:34;;;;;;;;;;;13.30;87.80;;;;;;5029009;28;19913;-55
2023/10/25 13:48:01;;;;;;;;;;;13.20;87.60;;;;;;5014053;28;20315;-57
2023/10/25 13:50:31;;;;;;;;;;;13.20;87.70;;;;;;5010396;28;19910;-53
2023/10/25 13:52:58;;;;;;;;;;;13.10;87.70;;;;;;5009873;28;19925;-55
2023/10/25 13:55:24;;;;;;;;;;;13.10;88.00;;;;;;5009712;28;19909;-54
2023/10/25 13:57:50;;;;;;;;;;;13.20;88.20;;;;;;5010568;28;20314;-54
2023/10/25 14:00:16;;;;;;;;;;;13.10;88.30;;;;;;5010584;28;19905;-52
2023/10/25 14:02:42;;;;;;;;;;;13.10;88.40;;;;;;5010517;28;19913;-55
2023/10/25 14:05:10;;;;;;;;;;;13.10;88.70;;;;;;5008558;28;19915;-56
2023/10/25 14:07:37;;;;;;;;;;;13.10;88.50;;;;;;5011299;28;19989;-54
2023/10/25 14:10:06;;;;;;;;;;;13.10;88.40;;;;;;5029165;28;19951;-54
2023/10/25 14:12:33;;;;;;;;;;;13.10;88.50;;;;;;5028919;28;19948;-55
2023/10/25 14:15:00;;;;;;;;;;;13.10;88.60;;;;;;5026743;28;19913;-55
2023/10/25 14:17:26;;;;;;;;;;;13.10;88.20;;;;;;5010116;28;20270;-54
2023/10/25 14:19:53;;;;;;;;;;;13.10;88.40;;;;;;5009331;28;20317;-55
2023/10/25 14:22:19;;;;;;;;;;;13.10;88.50;;;;;;5010072;28;19922;-55
2023/10/25 14:24:46;;;;;;;;;;;13.10;88.20;;;;;;5011195;28;20024;-56
2023/10/25 14:27:11;;;;;;;;;;;13.00;88.30;;;;;;5012892;28;19910;-49